sensor_id;sensor_type;location;lat;lon;timestamp;P1;durP1;ratioP1;P2;durP2;ratioP2
30247;SDS011;17063;50.892;4.702;2022-08-04T00:00:11;9.83;;;2.03;;
30247;SDS011;17063;50.892;4.702;2022-08-04T00:11:06;8.37;;;1.97;;
30247;SDS011;17063;50.892;4.702;2022-08-04T00:13:41;6.20;;;1.80;;
30247;SDS011;17063;50.892;4.702;2022-08-04T00:16:31;7.83;;;1.93;;
30247;SDS011;17063;50.892;4.702;2022-08-04T00:19:06;7.10;;;2.10;;
30247;SDS011;17063;50.892;4.702;2022-08-04T00:21:37;4.97;;;2.00;;
30247;SDS011;17063;50.892;4.702;2022-08-04T00:24:05;5.17;;;1.70;;
30247;SDS011;17063;50.892;4.702;2022-08-04T00:26:36;5.10;;;2.00;;
30247;SDS011;17063;50.892;4.702;2022-08-04T00:29:04;3.83;;;1.90;;
30247;SDS011;17063;50.892;4.702;2022-08-04T00:31:31;3.67;;;1.93;;
30247;SDS011;17063;50.892;4.702;2022-08-04T00:34:17;6.13;;;1.67;;
30247;SDS011;17063;50.892;4.702;2022-08-04T00:36:44;6.27;;;2.10;;
30247;SDS011;17063;50.892;4.702;2022-08-04T00:39:12;2.27;;;1.53;;
30247;SDS011;17063;50.892;4.702;2022-08-04T00:50:17;1.83;;;1.40;;
30247;SDS011;17063;50.892;4.702;2022-08-04T00:52:55;1.97;;;1.53;;
30247;SDS011;17063;50.892;4.702;2022-08-04T00:55:40;3.50;;;1.57;;
30247;SDS011;17063;50.892;4.702;2022-08-04T01:01:15;5.47;;;1.90;;
30247;SDS011;17063;50.892;4.702;2022-08-04T01:03:49;4.77;;;1.60;;
30247;SDS011;17063;50.892;4.702;2022-08-04T01:15:21;2.87;;;1.50;;
30247;SDS011;17063;50.892;4.702;2022-08-04T01:23:49;3.03;;;1.83;;
30247;SDS011;17063;50.892;4.702;2022-08-04T01:29:25;7.40;;;1.63;;
30247;SDS011;17063;50.892;4.702;2022-08-04T01:32:31;5.53;;;1.80;;
30247;SDS011;17063;50.892;4.702;2022-08-04T01:35:13;7.30;;;1.70;;
30247;SDS011;17063;50.892;4.702;2022-08-04T01:40:53;6.20;;;1.70;;
30247;SDS011;17063;50.892;4.702;2022-08-04T01:43:22;4.50;;;1.80;;
30247;SDS011;17063;50.892;4.702;2022-08-04T01:45:51;2.57;;;1.50;;
30247;SDS011;17063;50.892;4.702;2022-08-04T01:48:23;2.97;;;1.73;;
30247;SDS011;17063;50.892;4.702;2022-08-04T01:50:52;6.17;;;2.10;;
30247;SDS011;17063;50.892;4.702;2022-08-04T01:53:20;5.27;;;2.00;;
30247;SDS011;17063;50.892;4.702;2022-08-04T01:55:47;3.97;;;1.63;;
30247;SDS011;17063;50.892;4.702;2022-08-04T01:58:20;2.53;;;1.67;;
30247;SDS011;17063;50.892;4.702;2022-08-04T02:00:57;4.90;;;1.70;;
30247;SDS011;17063;50.892;4.702;2022-08-04T02:03:32;2.83;;;1.70;;
30247;SDS011;17063;50.892;4.702;2022-08-04T02:06:27;4.77;;;1.80;;
30247;SDS011;17063;50.892;4.702;2022-08-04T02:11:30;4.90;;;1.93;;
30247;SDS011;17063;50.892;4.702;2022-08-04T02:19:13;11.67;;;2.90;;
30247;SDS011;17063;50.892;4.702;2022-08-04T02:21:47;8.17;;;2.80;;
30247;SDS011;17063;50.892;4.702;2022-08-04T02:24:17;5.13;;;2.90;;
30247;SDS011;17063;50.892;4.702;2022-08-04T02:26:45;7.40;;;2.67;;
30247;SDS011;17063;50.892;4.702;2022-08-04T02:29:20;8.73;;;2.50;;
30247;SDS011;17063;50.892;4.702;2022-08-04T02:32:06;8.73;;;3.23;;
30247;SDS011;17063;50.892;4.702;2022-08-04T02:34:43;9.43;;;3.20;;
30247;SDS011;17063;50.892;4.702;2022-08-04T02:37:16;6.33;;;2.80;;
30247;SDS011;17063;50.892;4.702;2022-08-04T02:39:44;8.20;;;3.20;;
30247;SDS011;17063;50.892;4.702;2022-08-04T02:42:14;6.77;;;3.47;;
30247;SDS011;17063;50.892;4.702;2022-08-04T02:44:42;9.03;;;3.23;;
30247;SDS011;17063;50.892;4.702;2022-08-04T02:47:15;9.73;;;3.33;;
30247;SDS011;17063;50.892;4.702;2022-08-04T02:49:43;9.37;;;3.50;;
30247;SDS011;17063;50.892;4.702;2022-08-04T02:52:12;10.67;;;3.60;;
30247;SDS011;17063;50.892;4.702;2022-08-04T02:54:41;9.40;;;3.20;;
30247;SDS011;17063;50.892;4.702;2022-08-04T02:57:11;5.73;;;3.30;;
30247;SDS011;17063;50.892;4.702;2022-08-04T03:02:28;7.70;;;3.63;;
30247;SDS011;17063;50.892;4.702;2022-08-04T03:08:48;9.00;;;3.67;;
30247;SDS011;17063;50.892;4.702;2022-08-04T03:11:50;15.27;;;4.30;;
30247;SDS011;17063;50.892;4.702;2022-08-04T03:14:48;16.47;;;3.50;;
30247;SDS011;17063;50.892;4.702;2022-08-04T03:26:31;4.83;;;3.03;;
30247;SDS011;17063;50.892;4.702;2022-08-04T03:46:26;9.67;;;3.60;;
30247;SDS011;17063;50.892;4.702;2022-08-04T04:12:03;9.00;;;3.70;;
30247;SDS011;17063;50.892;4.702;2022-08-04T04:19:54;10.47;;;4.00;;
30247;SDS011;17063;50.892;4.702;2022-08-04T04:34:15;9.03;;;4.07;;
30247;SDS011;17063;50.892;4.702;2022-08-04T04:37:00;6.70;;;3.60;;
30247;SDS011;17063;50.892;4.702;2022-08-04T04:39:45;5.80;;;3.13;;
30247;SDS011;17063;50.892;4.702;2022-08-04T04:47:56;10.70;;;3.50;;
30247;SDS011;17063;50.892;4.702;2022-08-04T04:50:37;11.00;;;3.50;;
30247;SDS011;17063;50.892;4.702;2022-08-04T04:53:26;5.47;;;3.30;;
30247;SDS011;17063;50.892;4.702;2022-08-04T04:58:44;8.40;;;3.17;;
30247;SDS011;17063;50.892;4.702;2022-08-04T05:10:03;5.87;;;3.47;;
30247;SDS011;17063;50.892;4.702;2022-08-04T05:12:41;9.17;;;3.37;;
30247;SDS011;17063;50.892;4.702;2022-08-04T05:15:39;8.57;;;3.80;;
30247;SDS011;17063;50.892;4.702;2022-08-04T05:18:08;6.30;;;3.00;;
30247;SDS011;17063;50.892;4.702;2022-08-04T05:20:41;7.47;;;3.17;;
30247;SDS011;17063;50.892;4.702;2022-08-04T05:23:12;8.23;;;3.10;;
30247;SDS011;17063;50.892;4.702;2022-08-04T05:25:43;7.13;;;3.27;;
30247;SDS011;17063;50.892;4.702;2022-08-04T05:28:32;6.87;;;3.03;;
30247;SDS011;17063;50.892;4.702;2022-08-04T05:31:19;6.27;;;3.20;;
30247;SDS011;17063;50.892;4.702;2022-08-04T05:33:51;11.53;;;3.33;;
30247;SDS011;17063;50.892;4.702;2022-08-04T05:36:21;11.43;;;3.30;;
30247;SDS011;17063;50.892;4.702;2022-08-04T05:39:08;7.27;;;2.77;;
30247;SDS011;17063;50.892;4.702;2022-08-04T05:41:39;8.00;;;2.87;;
30247;SDS011;17063;50.892;4.702;2022-08-04T05:44:14;5.27;;;2.90;;
30247;SDS011;17063;50.892;4.702;2022-08-04T05:46:42;7.07;;;3.00;;
30247;SDS011;17063;50.892;4.702;2022-08-04T05:49:20;7.73;;;2.90;;
30247;SDS011;17063;50.892;4.702;2022-08-04T05:51:50;6.63;;;2.97;;
30247;SDS011;17063;50.892;4.702;2022-08-04T05:54:18;11.43;;;2.93;;
30247;SDS011;17063;50.892;4.702;2022-08-04T05:56:46;6.13;;;3.07;;
30247;SDS011;17063;50.892;4.702;2022-08-04T05:59:14;7.03;;;2.67;;
30247;SDS011;17063;50.892;4.702;2022-08-04T06:01:41;8.00;;;2.70;;
30247;SDS011;17063;50.892;4.702;2022-08-04T06:04:24;7.20;;;3.17;;
30247;SDS011;17063;50.892;4.702;2022-08-04T06:07:13;17.13;;;2.67;;
30247;SDS011;17063;50.892;4.702;2022-08-04T06:09:40;10.60;;;2.53;;
30247;SDS011;17063;50.892;4.702;2022-08-04T06:12:14;7.40;;;2.70;;
30247;SDS011;17063;50.892;4.702;2022-08-04T06:14:49;9.67;;;2.60;;
30247;SDS011;17063;50.892;4.702;2022-08-04T06:17:26;6.63;;;2.30;;
30247;SDS011;17063;50.892;4.702;2022-08-04T06:20:16;7.13;;;2.53;;
30247;SDS011;17063;50.892;4.702;2022-08-04T06:22:53;9.23;;;2.67;;
30247;SDS011;17063;50.892;4.702;2022-08-04T06:25:25;5.40;;;3.10;;
30247;SDS011;17063;50.892;4.702;2022-08-04T06:27:55;9.10;;;3.00;;
30247;SDS011;17063;50.892;4.702;2022-08-04T06:30:24;6.07;;;2.67;;
30247;SDS011;17063;50.892;4.702;2022-08-04T06:32:52;8.07;;;2.90;;
30247;SDS011;17063;50.892;4.702;2022-08-04T06:35:30;8.37;;;2.70;;
30247;SDS011;17063;50.892;4.702;2022-08-04T06:37:57;10.20;;;2.57;;
30247;SDS011;17063;50.892;4.702;2022-08-04T06:40:27;7.10;;;2.43;;
30247;SDS011;17063;50.892;4.702;2022-08-04T06:42:59;8.83;;;2.73;;
30247;SDS011;17063;50.892;4.702;2022-08-04T06:45:27;8.33;;;2.73;;
30247;SDS011;17063;50.892;4.702;2022-08-04T06:47:55;6.80;;;2.63;;
30247;SDS011;17063;50.892;4.702;2022-08-04T06:50:22;8.37;;;2.90;;
30247;SDS011;17063;50.892;4.702;2022-08-04T06:53:09;7.00;;;2.47;;
30247;SDS011;17063;50.892;4.702;2022-08-04T06:55:37;7.20;;;2.50;;
30247;SDS011;17063;50.892;4.702;2022-08-04T06:58:05;4.97;;;2.40;;
30247;SDS011;17063;50.892;4.702;2022-08-04T07:00:33;7.23;;;2.97;;
30247;SDS011;17063;50.892;4.702;2022-08-04T07:03:01;8.53;;;2.60;;
30247;SDS011;17063;50.892;4.702;2022-08-04T07:05:28;9.77;;;2.13;;
30247;SDS011;17063;50.892;4.702;2022-08-04T07:07:56;6.23;;;2.60;;
30247;SDS011;17063;50.892;4.702;2022-08-04T07:10:25;7.37;;;2.63;;
30247;SDS011;17063;50.892;4.702;2022-08-04T07:12:54;7.30;;;2.83;;
30247;SDS011;17063;50.892;4.702;2022-08-04T07:15:22;9.30;;;2.70;;
30247;SDS011;17063;50.892;4.702;2022-08-04T07:17:51;13.73;;;2.70;;
30247;SDS011;17063;50.892;4.702;2022-08-04T07:20:26;9.30;;;2.27;;
30247;SDS011;17063;50.892;4.702;2022-08-04T07:23:05;7.20;;;2.40;;
30247;SDS011;17063;50.892;4.702;2022-08-04T07:25:35;7.03;;;2.33;;
30247;SDS011;17063;50.892;4.702;2022-08-04T07:28:31;5.97;;;2.30;;
30247;SDS011;17063;50.892;4.702;2022-08-04T07:30:57;9.47;;;2.30;;
30247;SDS011;17063;50.892;4.702;2022-08-04T07:33:26;6.00;;;2.40;;
30247;SDS011;17063;50.892;4.702;2022-08-04T07:35:53;9.33;;;2.33;;
30247;SDS011;17063;50.892;4.702;2022-08-04T07:38:39;6.80;;;2.20;;
30247;SDS011;17063;50.892;4.702;2022-08-04T07:41:21;9.87;;;2.47;;
30247;SDS011;17063;50.892;4.702;2022-08-04T07:44:05;11.37;;;2.57;;
30247;SDS011;17063;50.892;4.702;2022-08-04T07:46:32;8.30;;;1.90;;
30247;SDS011;17063;50.892;4.702;2022-08-04T07:48:59;6.50;;;2.03;;
30247;SDS011;17063;50.892;4.702;2022-08-04T07:51:27;8.23;;;2.13;;
30247;SDS011;17063;50.892;4.702;2022-08-04T07:53:56;6.60;;;2.13;;
30247;SDS011;17063;50.892;4.702;2022-08-04T07:56:27;10.20;;;2.30;;
30247;SDS011;17063;50.892;4.702;2022-08-04T07:58:54;5.97;;;1.93;;
30247;SDS011;17063;50.892;4.702;2022-08-04T08:01:24;8.47;;;2.30;;
30247;SDS011;17063;50.892;4.702;2022-08-04T08:03:52;10.80;;;2.20;;
30247;SDS011;17063;50.892;4.702;2022-08-04T08:06:21;10.10;;;2.57;;
30247;SDS011;17063;50.892;4.702;2022-08-04T08:09:00;10.80;;;2.93;;
30247;SDS011;17063;50.892;4.702;2022-08-04T08:11:39;8.30;;;2.23;;
30247;SDS011;17063;50.892;4.702;2022-08-04T08:14:27;7.10;;;2.10;;
30247;SDS011;17063;50.892;4.702;2022-08-04T08:16:56;8.60;;;2.27;;
30247;SDS011;17063;50.892;4.702;2022-08-04T08:19:24;7.43;;;2.10;;
30247;SDS011;17063;50.892;4.702;2022-08-04T08:21:51;11.00;;;2.60;;
30247;SDS011;17063;50.892;4.702;2022-08-04T08:24:26;10.13;;;2.37;;
30247;SDS011;17063;50.892;4.702;2022-08-04T08:26:53;8.93;;;2.50;;
30247;SDS011;17063;50.892;4.702;2022-08-04T08:29:21;6.30;;;2.10;;
30247;SDS011;17063;50.892;4.702;2022-08-04T08:31:48;9.03;;;1.93;;
30247;SDS011;17063;50.892;4.702;2022-08-04T08:34:29;8.67;;;2.50;;
30247;SDS011;17063;50.892;4.702;2022-08-04T08:45:27;12.47;;;2.73;;
30247;SDS011;17063;50.892;4.702;2022-08-04T08:59:42;11.40;;;2.63;;
30247;SDS011;17063;50.892;4.702;2022-08-04T09:08:21;9.30;;;2.93;;
30247;SDS011;17063;50.892;4.702;2022-08-04T09:11:05;10.03;;;3.50;;
30247;SDS011;17063;50.892;4.702;2022-08-04T09:13:38;12.63;;;3.30;;
30247;SDS011;17063;50.892;4.702;2022-08-04T09:21:38;7.73;;;3.13;;
30247;SDS011;17063;50.892;4.702;2022-08-04T09:27:15;19.83;;;3.47;;
30247;SDS011;17063;50.892;4.702;2022-08-04T09:33:47;12.27;;;3.73;;
30247;SDS011;17063;50.892;4.702;2022-08-04T09:39:49;13.80;;;4.17;;
30247;SDS011;17063;50.892;4.702;2022-08-04T09:42:31;12.17;;;4.00;;
30247;SDS011;17063;50.892;4.702;2022-08-04T09:45:11;14.87;;;4.20;;
30247;SDS011;17063;50.892;4.702;2022-08-04T09:48:13;10.33;;;4.30;;
30247;SDS011;17063;50.892;4.702;2022-08-04T09:50:43;17.43;;;4.77;;
30247;SDS011;17063;50.892;4.702;2022-08-04T09:56:25;10.97;;;5.33;;
30247;SDS011;17063;50.892;4.702;2022-08-04T10:01:42;10.50;;;5.73;;
30247;SDS011;17063;50.892;4.702;2022-08-04T10:04:24;11.60;;;5.93;;
30247;SDS011;17063;50.892;4.702;2022-08-04T10:14:51;12.10;;;6.53;;
30247;SDS011;17063;50.892;4.702;2022-08-04T10:20:09;12.93;;;6.40;;
30247;SDS011;17063;50.892;4.702;2022-08-04T10:23:19;13.97;;;7.00;;
30247;SDS011;17063;50.892;4.702;2022-08-04T10:26:01;14.00;;;6.47;;
30247;SDS011;17063;50.892;4.702;2022-08-04T10:28:40;14.67;;;7.10;;
30247;SDS011;17063;50.892;4.702;2022-08-04T10:31:12;19.03;;;7.73;;
30247;SDS011;17063;50.892;4.702;2022-08-04T11:00:13;14.40;;;6.93;;
30247;SDS011;17063;50.892;4.702;2022-08-04T11:02:56;14.77;;;6.77;;
30247;SDS011;17063;50.892;4.702;2022-08-04T11:05:51;14.67;;;6.63;;
30247;SDS011;17063;50.892;4.702;2022-08-04T11:13:32;13.53;;;6.80;;
30247;SDS011;17063;50.892;4.702;2022-08-04T11:16:24;10.43;;;6.50;;
30247;SDS011;17063;50.892;4.702;2022-08-04T11:24:54;13.77;;;7.07;;
30247;SDS011;17063;50.892;4.702;2022-08-04T11:30:11;14.10;;;8.00;;
30247;SDS011;17063;50.892;4.702;2022-08-04T11:32:45;13.60;;;8.07;;
30247;SDS011;17063;50.892;4.702;2022-08-04T11:35:41;16.93;;;7.43;;
30247;SDS011;17063;50.892;4.702;2022-08-04T11:38:26;12.27;;;7.00;;
30247;SDS011;17063;50.892;4.702;2022-08-04T11:40:59;10.93;;;6.80;;
30247;SDS011;17063;50.892;4.702;2022-08-04T11:52:39;12.67;;;6.80;;
30247;SDS011;17063;50.892;4.702;2022-08-04T11:55:12;10.13;;;5.70;;
30247;SDS011;17063;50.892;4.702;2022-08-04T11:57:41;12.03;;;6.00;;
30247;SDS011;17063;50.892;4.702;2022-08-04T12:00:19;8.80;;;4.70;;
30247;SDS011;17063;50.892;4.702;2022-08-04T12:05:19;10.63;;;4.53;;
30247;SDS011;17063;50.892;4.702;2022-08-04T12:20:22;14.57;;;6.13;;
30247;SDS011;17063;50.892;4.702;2022-08-04T12:23:14;15.93;;;7.10;;
30247;SDS011;17063;50.892;4.702;2022-08-04T12:25:49;16.00;;;7.77;;
30247;SDS011;17063;50.892;4.702;2022-08-04T12:28:25;14.83;;;6.97;;
30247;SDS011;17063;50.892;4.702;2022-08-04T12:31:18;15.20;;;8.17;;
30247;SDS011;17063;50.892;4.702;2022-08-04T12:33:52;16.57;;;8.40;;
30247;SDS011;17063;50.892;4.702;2022-08-04T12:39:16;13.33;;;7.10;;
30247;SDS011;17063;50.892;4.702;2022-08-04T12:44:19;15.03;;;7.73;;
30247;SDS011;17063;50.892;4.702;2022-08-04T12:47:04;13.33;;;7.00;;
30247;SDS011;17063;50.892;4.702;2022-08-04T12:49:55;13.57;;;6.77;;
30247;SDS011;17063;50.892;4.702;2022-08-04T12:52:45;11.67;;;6.30;;
30247;SDS011;17063;50.892;4.702;2022-08-04T12:55:28;17.00;;;5.80;;
30247;SDS011;17063;50.892;4.702;2022-08-04T12:57:57;12.53;;;5.40;;
30247;SDS011;17063;50.892;4.702;2022-08-04T13:00:33;9.53;;;4.90;;
30247;SDS011;17063;50.892;4.702;2022-08-04T13:03:11;14.00;;;4.70;;
30247;SDS011;17063;50.892;4.702;2022-08-04T13:05:40;9.27;;;4.67;;
30247;SDS011;17063;50.892;4.702;2022-08-04T13:08:12;11.53;;;4.97;;
30247;SDS011;17063;50.892;4.702;2022-08-04T13:10:43;11.10;;;4.73;;
30247;SDS011;17063;50.892;4.702;2022-08-04T13:13:14;8.70;;;4.07;;
30247;SDS011;17063;50.892;4.702;2022-08-04T13:15:58;8.10;;;3.80;;
30247;SDS011;17063;50.892;4.702;2022-08-04T13:18:35;5.37;;;3.57;;
30247;SDS011;17063;50.892;4.702;2022-08-04T13:21:17;6.27;;;3.50;;
30247;SDS011;17063;50.892;4.702;2022-08-04T13:24:12;8.97;;;3.90;;
30247;SDS011;17063;50.892;4.702;2022-08-04T13:27:01;7.70;;;3.67;;
30247;SDS011;17063;50.892;4.702;2022-08-04T13:32:25;8.27;;;3.37;;
30247;SDS011;17063;50.892;4.702;2022-08-04T13:34:54;9.00;;;3.97;;
30247;SDS011;17063;50.892;4.702;2022-08-04T13:37:25;6.53;;;3.20;;
30247;SDS011;17063;50.892;4.702;2022-08-04T13:39:58;7.20;;;3.40;;
30247;SDS011;17063;50.892;4.702;2022-08-04T13:42:26;7.23;;;3.50;;
30247;SDS011;17063;50.892;4.702;2022-08-04T13:44:57;6.43;;;3.57;;
30247;SDS011;17063;50.892;4.702;2022-08-04T13:47:28;7.60;;;3.33;;
30247;SDS011;17063;50.892;4.702;2022-08-04T13:50:08;9.77;;;3.87;;
30247;SDS011;17063;50.892;4.702;2022-08-04T13:52:41;8.87;;;3.43;;
30247;SDS011;17063;50.892;4.702;2022-08-04T13:55:19;8.37;;;3.73;;
30247;SDS011;17063;50.892;4.702;2022-08-04T13:57:54;5.13;;;3.30;;
30247;SDS011;17063;50.892;4.702;2022-08-04T14:00:26;9.87;;;4.47;;
30247;SDS011;17063;50.892;4.702;2022-08-04T14:03:07;6.97;;;3.50;;
30247;SDS011;17063;50.892;4.702;2022-08-04T14:06:04;7.30;;;3.50;;
30247;SDS011;17063;50.892;4.702;2022-08-04T14:08:32;4.43;;;2.93;;
30247;SDS011;17063;50.892;4.702;2022-08-04T14:11:04;6.30;;;3.37;;
30247;SDS011;17063;50.892;4.702;2022-08-04T14:13:34;6.73;;;3.70;;
30247;SDS011;17063;50.892;4.702;2022-08-04T14:16:14;9.07;;;3.67;;
30247;SDS011;17063;50.892;4.702;2022-08-04T14:18:43;7.70;;;3.73;;
30247;SDS011;17063;50.892;4.702;2022-08-04T14:21:11;7.60;;;3.40;;
30247;SDS011;17063;50.892;4.702;2022-08-04T14:23:51;8.53;;;3.20;;
30247;SDS011;17063;50.892;4.702;2022-08-04T14:29:09;10.83;;;3.80;;
30247;SDS011;17063;50.892;4.702;2022-08-04T14:32:01;6.33;;;3.17;;
30247;SDS011;17063;50.892;4.702;2022-08-04T14:34:42;6.13;;;3.13;;
30247;SDS011;17063;50.892;4.702;2022-08-04T14:37:13;6.20;;;3.03;;
30247;SDS011;17063;50.892;4.702;2022-08-04T14:39:49;7.03;;;2.73;;
30247;SDS011;17063;50.892;4.702;2022-08-04T14:42:42;7.43;;;2.67;;
30247;SDS011;17063;50.892;4.702;2022-08-04T14:47:56;3.80;;;2.60;;
30247;SDS011;17063;50.892;4.702;2022-08-04T14:50:33;5.60;;;2.47;;
30247;SDS011;17063;50.892;4.702;2022-08-04T14:53:11;6.97;;;2.67;;
30247;SDS011;17063;50.892;4.702;2022-08-04T14:55:46;6.83;;;2.63;;
30247;SDS011;17063;50.892;4.702;2022-08-04T14:58:19;5.20;;;2.73;;
30247;SDS011;17063;50.892;4.702;2022-08-04T15:01:04;8.80;;;3.20;;
30247;SDS011;17063;50.892;4.702;2022-08-04T15:03:41;9.17;;;3.37;;
30247;SDS011;17063;50.892;4.702;2022-08-04T15:06:22;7.20;;;2.77;;
30247;SDS011;17063;50.892;4.702;2022-08-04T15:08:53;5.47;;;2.37;;
30247;SDS011;17063;50.892;4.702;2022-08-04T15:11:23;5.07;;;3.20;;
30247;SDS011;17063;50.892;4.702;2022-08-04T15:13:51;4.60;;;2.63;;
30247;SDS011;17063;50.892;4.702;2022-08-04T15:16:24;8.97;;;3.10;;
30247;SDS011;17063;50.892;4.702;2022-08-04T15:18:52;4.57;;;2.80;;
30247;SDS011;17063;50.892;4.702;2022-08-04T15:21:26;4.80;;;2.80;;
30247;SDS011;17063;50.892;4.702;2022-08-04T15:23:55;6.23;;;2.50;;
30247;SDS011;17063;50.892;4.702;2022-08-04T15:26:40;6.20;;;3.00;;
30247;SDS011;17063;50.892;4.702;2022-08-04T15:31:43;6.03;;;2.70;;
30247;SDS011;17063;50.892;4.702;2022-08-04T15:34:45;7.20;;;3.00;;
30247;SDS011;17063;50.892;4.702;2022-08-04T15:37:17;5.40;;;2.60;;
30247;SDS011;17063;50.892;4.702;2022-08-04T15:39:57;7.30;;;2.60;;
30247;SDS011;17063;50.892;4.702;2022-08-04T15:45:50;4.50;;;2.70;;
30247;SDS011;17063;50.892;4.702;2022-08-04T15:48:38;6.63;;;2.60;;
30247;SDS011;17063;50.892;4.702;2022-08-04T15:51:09;7.20;;;3.20;;
30247;SDS011;17063;50.892;4.702;2022-08-04T15:58:55;7.87;;;3.33;;
30247;SDS011;17063;50.892;4.702;2022-08-04T16:01:22;12.03;;;3.20;;
30247;SDS011;17063;50.892;4.702;2022-08-04T16:03:51;5.80;;;2.50;;
30247;SDS011;17063;50.892;4.702;2022-08-04T16:06:39;6.20;;;2.80;;
30247;SDS011;17063;50.892;4.702;2022-08-04T16:09:07;3.67;;;2.67;;
30247;SDS011;17063;50.892;4.702;2022-08-04T16:14:09;7.80;;;3.60;;
30247;SDS011;17063;50.892;4.702;2022-08-04T16:21:51;6.60;;;3.40;;
30247;SDS011;17063;50.892;4.702;2022-08-04T16:24:28;5.77;;;2.77;;
30247;SDS011;17063;50.892;4.702;2022-08-04T16:29:36;8.53;;;3.30;;
30247;SDS011;17063;50.892;4.702;2022-08-04T16:32:11;7.27;;;3.23;;
30247;SDS011;17063;50.892;4.702;2022-08-04T16:37:28;5.97;;;2.80;;
30247;SDS011;17063;50.892;4.702;2022-08-04T16:43:04;6.83;;;2.80;;
30247;SDS011;17063;50.892;4.702;2022-08-04T16:48:35;6.93;;;2.83;;
30247;SDS011;17063;50.892;4.702;2022-08-04T16:51:14;5.00;;;2.70;;
30247;SDS011;17063;50.892;4.702;2022-08-04T16:53:47;7.20;;;2.50;;
30247;SDS011;17063;50.892;4.702;2022-08-04T16:56:30;7.93;;;2.47;;
30247;SDS011;17063;50.892;4.702;2022-08-04T16:59:13;4.87;;;2.60;;
30247;SDS011;17063;50.892;4.702;2022-08-04T17:01:48;7.03;;;2.63;;
30247;SDS011;17063;50.892;4.702;2022-08-04T17:04:28;5.17;;;2.47;;
30247;SDS011;17063;50.892;4.702;2022-08-04T17:07:04;10.77;;;2.73;;
30247;SDS011;17063;50.892;4.702;2022-08-04T17:09:48;5.50;;;1.97;;
30247;SDS011;17063;50.892;4.702;2022-08-04T17:12:18;6.97;;;2.80;;
30247;SDS011;17063;50.892;4.702;2022-08-04T17:14:49;11.17;;;2.80;;
30247;SDS011;17063;50.892;4.702;2022-08-04T17:17:26;8.37;;;2.50;;
30247;SDS011;17063;50.892;4.702;2022-08-04T17:20:14;3.60;;;2.30;;
30247;SDS011;17063;50.892;4.702;2022-08-04T17:22:41;5.93;;;2.60;;
30247;SDS011;17063;50.892;4.702;2022-08-04T17:25:08;6.57;;;2.83;;
30247;SDS011;17063;50.892;4.702;2022-08-04T17:27:35;6.57;;;3.03;;
30247;SDS011;17063;50.892;4.702;2022-08-04T17:30:26;6.10;;;2.80;;
30247;SDS011;17063;50.892;4.702;2022-08-04T17:32:56;10.13;;;2.40;;
30247;SDS011;17063;50.892;4.702;2022-08-04T17:35:26;4.97;;;2.73;;
30247;SDS011;17063;50.892;4.702;2022-08-04T17:38:06;7.50;;;2.57;;
30247;SDS011;17063;50.892;4.702;2022-08-04T17:40:33;4.57;;;2.30;;
30247;SDS011;17063;50.892;4.702;2022-08-04T17:43:15;4.47;;;2.33;;
30247;SDS011;17063;50.892;4.702;2022-08-04T17:48:59;6.93;;;2.47;;
30247;SDS011;17063;50.892;4.702;2022-08-04T17:54:33;6.77;;;2.43;;
30247;SDS011;17063;50.892;4.702;2022-08-04T17:59:45;6.67;;;2.37;;
30247;SDS011;17063;50.892;4.702;2022-08-04T18:02:25;6.00;;;2.23;;
30247;SDS011;17063;50.892;4.702;2022-08-04T18:05:03;4.20;;;1.97;;
30247;SDS011;17063;50.892;4.702;2022-08-04T18:07:40;6.60;;;2.07;;
30247;SDS011;17063;50.892;4.702;2022-08-04T18:10:42;5.47;;;2.27;;
30247;SDS011;17063;50.892;4.702;2022-08-04T18:13:24;7.97;;;2.30;;
30247;SDS011;17063;50.892;4.702;2022-08-04T18:16:05;5.07;;;2.20;;
30247;SDS011;17063;50.892;4.702;2022-08-04T18:19:05;4.93;;;2.07;;
30247;SDS011;17063;50.892;4.702;2022-08-04T18:21:36;3.00;;;1.97;;
30247;SDS011;17063;50.892;4.702;2022-08-04T18:24:23;6.43;;;2.20;;
30247;SDS011;17063;50.892;4.702;2022-08-04T18:27:12;5.63;;;1.80;;
30247;SDS011;17063;50.892;4.702;2022-08-04T18:29:40;7.17;;;2.37;;
30247;SDS011;17063;50.892;4.702;2022-08-04T18:32:27;3.10;;;1.80;;
30247;SDS011;17063;50.892;4.702;2022-08-04T18:34:59;3.00;;;1.93;;
30247;SDS011;17063;50.892;4.702;2022-08-04T18:37:33;8.77;;;2.43;;
30247;SDS011;17063;50.892;4.702;2022-08-04T18:40:22;7.03;;;2.10;;
30247;SDS011;17063;50.892;4.702;2022-08-04T18:42:58;3.93;;;2.10;;
30247;SDS011;17063;50.892;4.702;2022-08-04T18:45:26;5.57;;;2.07;;
30247;SDS011;17063;50.892;4.702;2022-08-04T18:47:59;5.60;;;2.03;;
30247;SDS011;17063;50.892;4.702;2022-08-04T18:50:40;3.00;;;1.67;;
30247;SDS011;17063;50.892;4.702;2022-08-04T18:53:28;3.87;;;2.10;;
30247;SDS011;17063;50.892;4.702;2022-08-04T18:56:02;5.47;;;2.03;;
30247;SDS011;17063;50.892;4.702;2022-08-04T18:58:50;6.03;;;2.30;;
30247;SDS011;17063;50.892;4.702;2022-08-04T19:01:21;5.63;;;2.33;;
30247;SDS011;17063;50.892;4.702;2022-08-04T19:04:04;9.63;;;2.60;;
30247;SDS011;17063;50.892;4.702;2022-08-04T19:06:53;3.07;;;1.53;;
30247;SDS011;17063;50.892;4.702;2022-08-04T19:09:19;7.97;;;2.30;;
30247;SDS011;17063;50.892;4.702;2022-08-04T19:15:16;13.53;;;2.70;;
30247;SDS011;17063;50.892;4.702;2022-08-04T19:17:45;9.27;;;2.93;;
30247;SDS011;17063;50.892;4.702;2022-08-04T19:20:23;7.90;;;2.50;;
30247;SDS011;17063;50.892;4.702;2022-08-04T19:22:52;9.03;;;2.93;;
30247;SDS011;17063;50.892;4.702;2022-08-04T19:25:41;8.27;;;2.90;;
30247;SDS011;17063;50.892;4.702;2022-08-04T19:28:32;7.93;;;2.67;;
30247;SDS011;17063;50.892;4.702;2022-08-04T19:31:02;4.63;;;2.50;;
30247;SDS011;17063;50.892;4.702;2022-08-04T19:33:31;7.13;;;2.77;;
30247;SDS011;17063;50.892;4.702;2022-08-04T19:36:21;6.03;;;2.50;;
30247;SDS011;17063;50.892;4.702;2022-08-04T19:38:57;6.97;;;3.07;;
30247;SDS011;17063;50.892;4.702;2022-08-04T19:44:24;9.10;;;3.60;;
30247;SDS011;17063;50.892;4.702;2022-08-04T19:46:56;6.17;;;2.93;;
30247;SDS011;17063;50.892;4.702;2022-08-04T19:49:44;11.00;;;3.13;;
30247;SDS011;17063;50.892;4.702;2022-08-04T19:52:32;8.37;;;2.93;;
30247;SDS011;17063;50.892;4.702;2022-08-04T19:55:01;7.37;;;3.20;;
30247;SDS011;17063;50.892;4.702;2022-08-04T19:57:36;9.00;;;3.30;;
30247;SDS011;17063;50.892;4.702;2022-08-04T20:00:12;5.60;;;2.70;;
30247;SDS011;17063;50.892;4.702;2022-08-04T20:02:40;7.30;;;3.23;;
30247;SDS011;17063;50.892;4.702;2022-08-04T20:05:07;8.97;;;3.40;;
30247;SDS011;17063;50.892;4.702;2022-08-04T20:07:34;9.73;;;4.00;;
30247;SDS011;17063;50.892;4.702;2022-08-04T20:10:02;9.90;;;3.93;;
30247;SDS011;17063;50.892;4.702;2022-08-04T20:12:30;9.97;;;3.43;;
30247;SDS011;17063;50.892;4.702;2022-08-04T20:14:58;6.00;;;3.23;;
30247;SDS011;17063;50.892;4.702;2022-08-04T20:17:25;6.73;;;3.60;;
30247;SDS011;17063;50.892;4.702;2022-08-04T20:20:12;9.50;;;3.70;;
30247;SDS011;17063;50.892;4.702;2022-08-04T20:22:40;12.40;;;4.00;;
30247;SDS011;17063;50.892;4.702;2022-08-04T20:25:18;5.87;;;3.67;;
30247;SDS011;17063;50.892;4.702;2022-08-04T20:28:03;7.80;;;3.40;;
30247;SDS011;17063;50.892;4.702;2022-08-04T20:30:30;12.63;;;4.17;;
30247;SDS011;17063;50.892;4.702;2022-08-04T20:32:58;8.77;;;4.00;;
30247;SDS011;17063;50.892;4.702;2022-08-04T20:35:29;6.37;;;4.00;;
30247;SDS011;17063;50.892;4.702;2022-08-04T20:38:18;7.23;;;4.03;;
30247;SDS011;17063;50.892;4.702;2022-08-04T20:40:59;8.03;;;3.67;;
30247;SDS011;17063;50.892;4.702;2022-08-04T20:43:26;6.60;;;3.40;;
30247;SDS011;17063;50.892;4.702;2022-08-04T20:45:56;9.43;;;3.43;;
30247;SDS011;17063;50.892;4.702;2022-08-04T20:48:26;8.67;;;3.20;;
30247;SDS011;17063;50.892;4.702;2022-08-04T20:50:54;5.93;;;3.13;;
30247;SDS011;17063;50.892;4.702;2022-08-04T20:53:22;6.10;;;3.43;;
30247;SDS011;17063;50.892;4.702;2022-08-04T20:56:09;3.60;;;2.90;;